Portage, Indiana
Current Conditions -  °F | °C
As of 3:15 AM on Monday 26 Jan 2015 (Local Time) from KGYY Reporting Station
Clear Clear  
Wind Chill: 15°   Ceiling: Unl
Heat Index: 22°   Visibility: 10mi
Dew Point: 11°   Wind: 5mph
Humidity: 65%   Direction: 50°NE
Pressure: 29.98"   Gusts: NA
Location:  41.6°N, 87.17°W
Report Text: KGYY 260915Z AUTO 05004KT 10SM CLR M06/M11 A2998 RMK AO2 T10571114
Loading
Personal Weather Stations






























Interactive Weather Map New forecast layout! Learn more

10-Day Weather Forecast

Advertisements
Track Severe Weather on mobile